ADDS METAR Data INFO
IDs: Format: Raw Decoded Include TAF

Data at: 1144 UTC 23 Jun 2018

PALG 231056Z AUTO 00000KT 10SM BKN046 OVC080 08/07 A3010 RMK AO2 SLP301 PWINO FZRANO TSNO RVRNO
PALG 230956Z AUTO 00000KT 10SM FEW044 OVC060 07/07 A3009 RMK AO2 SLP301 PWINO FZRANO TSNO RVRNO
PALG 230856Z AUTO 00000KT 10SM FEW043 SCT050 BKN065 08/07 A3008 RMK AO2 SLP301 52014 PWINO FZRANO TSNO RVRNO
PALG 230756Z AUTO 00000KT 10SM BKN038 BKN048 BKN065 10/07 A3007 RMK AO2 SLP301 PWINO FZRANO TSNO RVRNO
PALG 230656Z AUTO 00000KT 10SM OVC044 12/07 A3006 RMK AO2 SLP301 PWINO FZRANO TSNO RVRNO
PALG 230556Z AUTO 24003KT 10SM OVC050 13/07 A3004 RMK AO2 SLP301 10160 20120 52007 PWINO FZRANO TSNO RVRNO
PALG 230456Z AUTO 25006KT 10SM SCT035 OVC049 13/07 A3004 RMK AO2 SLP300 PWINO FZRANO TSNO RVRNO
PALG 230256Z AUTO 26006KT 10SM BKN040 BKN049 OVC065 14/06 A3002 RMK AO2 SLP300 P0999 61000 52007 PWINO FZRANO TSNO RVRNO
PALG 230156Z AUTO 04003KT 10SM BKN041 BKN060 14/07 A3002 RMK AO2 SLP300 P0001 PWINO FZRANO TSNO RVRNO
PALG 230056Z AUTO 25004KT 10SM SCT042 OVC055 14/06 A3001 RMK AO2 SLP300 PWINO FZRANO TSNO RVRNO
PALG 222356Z AUTO 00000KT 10SM BKN045 OVC060 14/06 A3000 RMK AO2 SLP300 10140 20090 401500070 54000 PWINO FZRANO TSNO RVRNO
PALG 222256Z AUTO VRB04KT 10SM SCT037 SCT050 OVC065 14/06 A3000 RMK AO2 SLP165 T01390061 PWINO
PALG 222156Z AUTO VRB04KT 10SM OVC060 13/07 A3000 RMK AO2 SLP300 PWINO FZRANO TSNO RVRNO
PALG 222123Z AUTO VRB04KT 10SM FEW023 BKN035 OVC060 12/07 A3000 RMK AO2 PWINO
PALG 222056Z AUTO 20006KT 10SM BKN025 BKN029 OVC065 12/07 A3000 RMK AO2 SLP300 52010 PWINO FZRANO TSNO RVRNO
PALG 221956Z AUTO VRB03KT 10SM OVC019 12/07 A2999 RMK AO2 SLP161 T01170072 PWINO
PALG 221856Z AUTO 18004KT 10SM BKN015 OVC060 10/07 A2998 RMK AO2 SLP300 PWINO FZRANO TSNO RVRNO
PALG 221813Z AUTO VRB04KT 10SM OVC015 09/07 A2998 RMK AO2 PWINO
PALG 221756Z AUTO 19004KT 10SM OVC013 09/07 A2997 RMK AO2 SLP300 10090 20070 52014 PWINO FZRANO TSNO RVRNO
PALG 221656Z AUTO 21004KT 10SM BKN013 BKN022 OVC028 09/07 A2995 RMK AO2 SLP300 PWINO FZRANO TSNO RVRNO
PALG 221556Z AUTO 00000KT 10SM BKN026 OVC039 09/07 A2994 RMK AO2 SLP300 PWINO FZRANO TSNO RVRNO
PALG 221456Z AUTO 00000KT 10SM OVC045 08/07 A2993 RMK AO2 SLP299 52014 PWINO FZRANO TSNO RVRNO
PALG 221356Z AUTO 00000KT 10SM OVC039 07/06 A2991 RMK AO2 SLP299 PWINO FZRANO TSNO RVRNO
PALG 221256Z AUTO 00000KT 10SM OVC060 07/06 A2990 RMK AO2 SLP299 PWINO FZRANO TSNO RVRNO
PALG 221156Z AUTO 00000KT 10SM SCT041 OVC065 09/07 A2989 RMK AO2 SLP299 75999 10120 20080 52020 PWINO FZRANO TSNO RVRNO
PALG 221056Z AUTO 00000KT 10SM BKN050 OVC065 09/07 A2987 RMK AO2 SLP299 PWINO FZRANO TSNO RVRNO
PALG 220956Z AUTO 00000KT 10SM BKN050 OVC060 09/07 A2985 RMK AO2 SLP299 PWINO FZRANO TSNO RVRNO
PALG 220856Z AUTO 00000KT 10SM BKN060 OVC075 10/06 A2983 RMK AO2 SLP105 T01000061 401560089 51022 PWINO
PALG 220756Z AUTO 00000KT 10SM OVC085 09/07 A2980 RMK AO2 SLP298 PWINO FZRANO TSNO RVRNO
PALG 220656Z AUTO 23004KT 10SM SCT080 11/06 A2979 RMK AO2 SLP092 T01110061 PWINO
PALG 220556Z AUTO VRB06KT 10SM OVC085 12/07 A2976 RMK AO2 SLP298 60999 10150 20120 52014 PWINO FZRANO TSNO RVRNO
PALG 220456Z AUTO 21008KT 10SM OVC090 13/07 A2975 RMK AO2 SLP078 T01280067 PWINO
PALG 220356Z AUTO 19009G14KT 150V220 10SM CLR 14/07 A2973 RMK AO2 SLP298 PWINO FZRANO TSNO RVRNO
PALG 220256Z AUTO 19011KT 10SM FEW029 SCT075 14/07 A2972 RMK AO2 SLP297 60999 52017 PWINO FZRANO TSNO RVRNO
PALG 220156Z AUTO 19007KT 150V220 10SM SCT031 SCT046 BKN065 14/07 A2971 RMK AO2 SLP297 PWINO FZRANO TSNO RVRNO
PALG 220056Z AUTO 19010G17KT 150V220 10SM SCT033 OVC047 14/08 A2969 RMK AO2 SLP297 P0999 PWINO FZRANO TSNO RVRNO
PALG 212356Z AUTO VRB06KT 10SM FEW039 BKN055 OVC070 15/08 A2967 RMK AO2 SLP297 P0994 61001 10160 20110 401600090 52010 PWINO FZRANO TSNO RVRNO